»·PEaware :: N605CD KVNY-KPSP

N605CD :: KVNY-KPSP

FLIGHT INFORMATION

Flight Status: Arrived
Operator: Privately registered:
United States
More flights under this callsign
Pilot: Brad T. (17476)
Aircraft: CIRRUS SR-20
(SR20)
More flights by this aircraft type
Origin: KVNY Van Nuys
United States
Destination: KPSP Palm Springs Intl
United States
More flights between these airports :: More routes between these airports
Route: +DARTS EMT POM RAVON DEWAY KPSP
File this flight plan on PilotEdge
Remarks: Sample flight plan
Altitude:
(Current/Filed)
7,500ft
Speed:
(Current/Filed)
140kts
Departed: 14-Dec-17 08:30 PM
Arrived: 14-Dec-17 09:26 PM
Distance/Time
Traveled:
101nm/0:55
Distance/Time
To Go:
Arrived

Flight Plot

Page will automatically refresh every two minutes.

Flight plan parsing failed; only flown route is shown


Map Options




Map Legend


Flown Route
Filed Route
Departure Airport
Arrival Airport
Navaid (VOR, NDB)
Fix

Horizontal Profiles

Position Reports

Time Latitude Longitude Heading Altitude Ground
Speed
14-Dec-17 20:22 34.203541 -118.491320 36 762ft 0kts
14-Dec-17 20:23 34.203541 -118.491320 36 762ft 0kts
14-Dec-17 20:24 34.203541 -118.491320 36 762ft 0kts
14-Dec-17 20:25 34.203541 -118.491320 36 762ft 0kts
14-Dec-17 20:26 34.203541 -118.491320 36 762ft 0kts
14-Dec-17 20:27 34.203541 -118.491320 36 762ft 0kts
14-Dec-17 20:28 34.203565 -118.491299 36 762ft 2kts
14-Dec-17 20:29 34.207042 -118.491263 354 772ft 29kts
14-Dec-17 20:30 34.213651 -118.491883 355 788ft 31kts
14-Dec-17 20:31 34.219353 -118.492344 45 799ft 4kts
14-Dec-17 20:32 34.219387 -118.492238 82 799ft 0kts
14-Dec-17 20:33 34.219387 -118.492238 82 799ft 0kts
14-Dec-17 20:34 34.219387 -118.492238 82 799ft 0kts
14-Dec-17 20:35 34.219387 -118.492238 82 799ft 0kts
14-Dec-17 20:36 34.212272 -118.490569 174 808ft 90kts
14-Dec-17 20:37 34.186468 -118.486734 173 1198ft 136kts
14-Dec-17 20:38 34.154208 -118.480076 160 1638ft 144kts
14-Dec-17 20:39 34.124231 -118.466529 142 2067ft 143kts
14-Dec-17 20:40 34.114083 -118.438746 98 2413ft 155kts
14-Dec-17 20:41 34.108803 -118.401111 98 2513ft 160kts
14-Dec-17 20:42 34.103170 -118.359010 96 2512ft 166kts
14-Dec-17 20:43 34.104494 -118.324983 86 2511ft 167kts
14-Dec-17 20:44 34.109554 -118.290490 76 2750ft 155kts
14-Dec-17 20:45 34.116131 -118.258646 76 3257ft 144kts
14-Dec-17 20:46 34.119627 -118.227056 86 3786ft 139kts
14-Dec-17 20:47 34.121129 -118.193449 87 3515ft 171kts
14-Dec-17 20:48 34.122850 -118.155042 87 3636ft 158kts
14-Dec-17 20:49 34.109064 -118.122322 123 4199ft 143kts
14-Dec-17 20:50 34.097225 -118.091936 106 4764ft 138kts
14-Dec-17 20:51 34.091757 -118.059154 98 5343ft 135kts
14-Dec-17 20:52 34.088752 -118.025536 94 5940ft 133kts
14-Dec-17 20:53 34.086893 -117.990826 93 6563ft 132kts
14-Dec-17 20:54 34.085353 -117.956354 92 7187ft 131kts
14-Dec-17 20:55 34.083632 -117.915168 92 7838ft 136kts
14-Dec-17 20:56 34.081969 -117.874654 92 7849ft 155kts
14-Dec-17 20:57 34.080126 -117.829836 92 7848ft 155kts
14-Dec-17 20:58 34.075668 -117.788835 128 7847ft 154kts
14-Dec-17 20:59 34.063128 -117.755217 84 7806ft 154kts
14-Dec-17 21:00 34.065468 -117.718517 78 7843ft 154kts
14-Dec-17 21:01 34.076899 -117.678431 79 7848ft 154kts
14-Dec-17 21:02 34.080863 -117.637676 85 7848ft 154kts
14-Dec-17 21:03 34.082725 -117.594409 87 7848ft 154kts
14-Dec-17 21:04 34.083793 -117.556925 87 7848ft 154kts
14-Dec-17 21:05 34.084697 -117.520082 88 7848ft 154kts
14-Dec-17 21:06 34.085569 -117.482370 88 7848ft 154kts
14-Dec-17 21:07 34.086502 -117.440766 88 7848ft 154kts
14-Dec-17 21:08 34.087393 -117.400314 88 7848ft 154kts
14-Dec-17 21:09 34.088290 -117.358951 88 7848ft 154kts
14-Dec-17 21:10 34.086591 -117.317443 104 7847ft 154kts
14-Dec-17 21:11 34.076913 -117.274935 105 7848ft 154kts
14-Dec-17 21:12 34.066731 -117.231678 106 7848ft 154kts
14-Dec-17 21:13 34.056341 -117.187947 106 7848ft 154kts
14-Dec-17 21:14 34.045640 -117.143066 106 7848ft 154kts
14-Dec-17 21:15 34.034497 -117.096436 106 7848ft 154kts
14-Dec-17 21:16 34.023519 -117.050575 106 7848ft 154kts
14-Dec-17 21:17 34.012062 -117.002746 106 7848ft 154kts
14-Dec-17 21:18 34.000240 -116.953547 106 7848ft 154kts
14-Dec-17 21:19 33.988274 -116.903849 106 7618ft 157kts
14-Dec-17 21:20 33.976363 -116.854465 106 7116ft 153kts
14-Dec-17 21:21 33.964506 -116.805412 106 6617ft 152kts
14-Dec-17 21:22 33.952610 -116.756295 106 6033ft 157kts
14-Dec-17 21:23 33.935845 -116.707829 99 5334ft 159kts
14-Dec-17 21:24 33.920187 -116.658788 116 4639ft 159kts
14-Dec-17 21:25 33.899626 -116.613115 120 3906ft 157kts
14-Dec-17 21:26 33.877295 -116.577916 130 3709ft 129kts
14-Dec-17 21:27 33.849098 -116.547524 141 2946ft 143kts
14-Dec-17 21:28 33.818025 -116.517667 141 2002ft 151kts
14-Dec-17 21:29 33.790479 -116.490354 119 1799ft 113kts
14-Dec-17 21:30 33.807001 -116.487615 326 1104ft 83kts
14-Dec-17 21:31 33.821560 -116.500489 322 429ft 63kts
14-Dec-17 21:32 33.828676 -116.507245 291 422ft 28kts
14-Dec-17 21:33 33.828552 -116.508546 182 424ft 10kts
14-Dec-17 21:34 33.825371 -116.508516 277 418ft 20kts
14-Dec-17 21:35 33.826718 -116.509402 316 422ft 0kts
14-Dec-17 21:36 33.826718 -116.509402 316 422ft 0kts

Navigation Log

Ident Type
Flight plan parsing failed, navigation log unavailable